地図

経路データ

SID SEASON NUMBER BASIN SUBBASIN NAME ISO_TIME NATURE LAT LON WMO_WIND WMO_PRES WMO_AGENCY TRACK_TYPE DIST2LAND LANDFALL IFLAG USA_AGENCY USA_ATCF_ID USA_LAT USA_LON USA_RECORD USA_STATUS USA_WIND USA_PRES USA_SSHS USA_R34_NE USA_R34_SE USA_R34_SW USA_R34_NW USA_R50_NE USA_R50_SE USA_R50_SW USA_R50_NW USA_R64_NE USA_R64_SE USA_R64_SW USA_R64_NW USA_POCI USA_ROCI USA_RMW USA_EYE TOKYO_LAT TOKYO_LON TOKYO_GRADE TOKYO_WIND TOKYO_PRES TOKYO_R50_DIR TOKYO_R50_LONG TOKYO_R50_SHORT TOKYO_R30_DIR TOKYO_R30_LONG TOKYO_R30_SHORT TOKYO_LAND CMA_LAT CMA_LON CMA_CAT CMA_WIND CMA_PRES HKO_LAT HKO_LON HKO_CAT HKO_WIND HKO_PRES NEWDELHI_LAT NEWDELHI_LON NEWDELHI_GRADE NEWDELHI_WIND NEWDELHI_PRES NEWDELHI_CI NEWDELHI_DP NEWDELHI_POCI REUNION_LAT REUNION_LON REUNION_TYPE REUNION_WIND REUNION_PRES REUNION_TNUM REUNION_CI REUNION_RMW REUNION_R34_NE REUNION_R34_SE REUNION_R34_SW REUNION_R34_NW REUNION_R50_NE REUNION_R50_SE REUNION_R50_SW REUNION_R50_NW REUNION_R64_NE REUNION_R64_SE REUNION_R64_SW REUNION_R64_NW BOM_LAT BOM_LON BOM_TYPE BOM_WIND BOM_PRES BOM_TNUM BOM_CI BOM_RMW BOM_R34_NE BOM_R34_SE BOM_R34_SW BOM_R34_NW BOM_R50_NE BOM_R50_SE BOM_R50_SW BOM_R50_NW BOM_R64_NE BOM_R64_SE BOM_R64_SW BOM_R64_NW BOM_ROCI BOM_POCI BOM_EYE BOM_POS_METHOD BOM_PRES_METHOD NADI_LAT NADI_LON NADI_CAT NADI_WIND NADI_PRES WELLINGTON_LAT WELLINGTON_LON WELLINGTON_WIND WELLINGTON_PRES DS824_LAT DS824_LON DS824_STAGE DS824_WIND DS824_PRES TD9636_LAT TD9636_LON TD9636_STAGE TD9636_WIND TD9636_PRES TD9635_LAT TD9635_LON TD9635_WIND TD9635_PRES TD9635_ROCI NEUMANN_LAT NEUMANN_LON NEUMANN_CLASS NEUMANN_WIND NEUMANN_PRES MLC_LAT MLC_LON MLC_CLASS MLC_WIND MLC_PRES USA_GUST BOM_GUST BOM_GUST_PER REUNION_GUST REUNION_GUST_PER USA_SEAHGT USA_SEARAD_NE USA_SEARAD_SE USA_SEARAD_SW USA_SEARAD_NW STORM_SPEED STORM_DIR
1908244N33288 1908 34 NA NA NOT_NAMED 1908-08-30 12:00:00 TS 33.0000 -72.5000 35 hurdat_atl main 408 385 O_____________ hurdat_atl AL051908 33.0000 -72.5000 TS 35 0 6 270
1908244N33288 1908 34 NA NA NOT_NAMED 1908-08-30 15:00:00 TS 33.0001 -72.8300 main 385 355 P_____________ AL051908 33.0001 -72.8300 TS 35 0 6 270
1908244N33288 1908 34 NA NA NOT_NAMED 1908-08-30 18:00:00 TS 33.0000 -73.2000 35 hurdat_atl main 355 326 O_____________ hurdat_atl AL051908 33.0000 -73.2000 TS 35 0 7 270
1908244N33288 1908 34 NA NA NOT_NAMED 1908-08-30 21:00:00 TS 33.0000 -73.6350 main 326 291 P_____________ AL051908 33.0000 -73.6350 TS 35 0 8 270
1908244N33288 1908 34 NA NA NOT_NAMED 1908-08-31 00:00:00 TS 33.0000 -74.1000 35 hurdat_atl main 291 264 O_____________ hurdat_atl AL051908 33.0000 -74.1000 TS 35 0 8 270
1908244N33288 1908 34 NA NA NOT_NAMED 1908-08-31 03:00:00 TS 32.9998 -74.5425 main 264 234 P_____________ AL051908 32.9998 -74.5425 TS 37 0 8 270
1908244N33288 1908 34 NA NA NOT_NAMED 1908-08-31 06:00:00 TS 33.0000 -75.0000 40 hurdat_atl main 234 210 O_____________ hurdat_atl AL051908 33.0000 -75.0000 TS 40 0 8 269
1908244N33288 1908 34 NA NA NOT_NAMED 1908-08-31 09:00:00 TS 32.9853 -75.5302 main 210 195 P_____________ AL051908 32.9853 -75.5302 TS 40 0 8 270
1908244N33288 1908 34 NA NA NOT_NAMED 1908-08-31 12:00:00 TS 33.0000 -76.0000 40 hurdat_atl main 195 186 O_____________ hurdat_atl AL051908 33.0000 -76.0000 TS 40 0 7 276
1908244N33288 1908 34 NA NA NOT_NAMED 1908-08-31 15:00:00 TS 33.0547 -76.3026 main 179 159 P_____________ AL051908 33.0547 -76.3026 TS 40 0 5 295
1908244N33288 1908 34 NA NA NOT_NAMED 1908-08-31 18:00:00 TS 33.2000 -76.5000 40 hurdat_atl main 159 127 O_____________ hurdat_atl AL051908 33.2000 -76.5000 TS 40 0 5 322
1908244N33288 1908 34 NA NA NOT_NAMED 1908-08-31 21:00:00 TS 33.4700 -76.6947 main 127 95 P_____________ AL051908 33.4700 -76.6947 TS 42 0 7 337
1908244N33288 1908 34 NA NA NOT_NAMED 1908-09-01 00:00:00 TS 33.8000 -76.8000 45 hurdat_atl main 95 66 O_____________ hurdat_atl AL051908 33.8000 -76.8000 TS 45 0 6 352
1908244N33288 1908 34 NA NA NOT_NAMED 1908-09-01 03:00:00 TS 34.1000 -76.7992 main 66 33 P_____________ AL051908 34.1000 -76.7992 TS 45 0 6 8
1908244N33288 1908 34 NA NA NOT_NAMED 1908-09-01 06:00:00 TS 34.4000 -76.7000 45 hurdat_atl main 33 11 O_____________ hurdat_atl AL051908 34.4000 -76.7000 TS 45 0 6 18
1908244N33288 1908 34 NA NA NOT_NAMED 1908-09-01 08:00:00 TS 34.6000 -76.6000 45 hurdat_atl main 11 0 O_____________ hurdat_atl AL051908 34.6000 -76.6000 L TS 45 0 6 23
1908244N33288 1908 34 NA NA NOT_NAMED 1908-09-01 09:00:00 TS 34.6909 -76.5499 main 0 0 P_____________ AL051908 34.6909 -76.5499 TS 45 0 7 32
1908244N33288 1908 34 NA NA NOT_NAMED 1908-09-01 12:00:00 TS 35.0000 -76.3000 45 hurdat_atl main 11 11 O_____________ hurdat_atl AL051908 35.0000 -76.3000 TS 45 0 11 39
1908244N33288 1908 34 NA NA NOT_NAMED 1908-09-01 15:00:00 TS 35.5048 -75.7354 main 11 0 P_____________ AL051908 35.5048 -75.7354 TS 45 0 15 44
1908244N33288 1908 34 NA NA NOT_NAMED 1908-09-01 18:00:00 TS 36.1000 -75.0000 45 hurdat_atl main 54 54 O_____________ hurdat_atl AL051908 36.1000 -75.0000 TS 45 0 16 45
1908244N33288 1908 34 NA NA NOT_NAMED 1908-09-01 21:00:00 TS 36.6573 -74.2995 main 136 136 P_____________ AL051908 36.6573 -74.2995 TS 42 0 16 46
1908244N33288 1908 34 NA NA NOT_NAMED 1908-09-02 00:00:00 TS 37.2000 -73.6000 40 hurdat_atl main 179 179 O_____________ hurdat_atl AL051908 37.2000 -73.6000 TS 40 0 15 45
1908244N33288 1908 34 NA NA NOT_NAMED 1908-09-02 03:00:00 TS 37.7216 -72.9638 main 195 195 P_____________ AL051908 37.7216 -72.9638 TS 40 0 14 46
1908244N33288 1908 34 NA NA NOT_NAMED 1908-09-02 06:00:00 TS 38.2000 -72.3000 40 hurdat_atl main 225 225 O_____________ hurdat_atl AL051908 38.2000 -72.3000 TS 40 0 14 50
1908244N33288 1908 34 NA NA NOT_NAMED 1908-09-02 09:00:00 TS 38.6132 -71.5878 main 253 248 P_____________ AL051908 38.6132 -71.5878 TS 37 0 15 57
1908244N33288 1908 34 NA NA NOT_NAMED 1908-09-02 12:00:00 TS 39.0000 -70.7000 35 hurdat_atl main 257 248 O_____________ hurdat_atl AL051908 39.0000 -70.7000 TS 35 0 18 64
1908244N33288 1908 34 NA NA NOT_NAMED 1908-09-02 15:00:00 TS 39.3991 -69.5365 main 254 247 P_____________ AL051908 39.3991 -69.5365 TS 30 -1 21 68
1908244N33288 1908 34 NA NA NOT_NAMED 1908-09-02 18:00:00 ET 39.8000 -68.2000 25 hurdat_atl main 259 O_____________ hurdat_atl AL051908 39.8000 -68.2000 EX 25 -4 22 69

IBTrACS Databaseについて

本データベースは、米国NOAAが公開する1842年以降の世界の熱帯低気圧のベストトラックデータアーカイブInternational Best Track Archive for Climate Stewardship (IBTrACS)を、ウェブで閲覧しやすい形式に変換したものです。

最終更新日:2021-11-26